createdAt,value
2019-01-11T00:00:59.661Z,7.50
2019-01-11T00:03:28.154Z,6.23
2019-01-11T00:05:56.600Z,6.40
2019-01-11T00:08:25.100Z,6.63
2019-01-11T00:10:53.552Z,7.20
2019-01-11T00:13:22.043Z,7.00
2019-01-11T00:15:50.562Z,5.87
2019-01-11T00:18:18.981Z,6.10
2019-01-11T00:20:47.434Z,5.90
2019-01-11T00:23:15.851Z,5.87
2019-01-11T00:25:44.290Z,5.97
2019-01-11T00:28:12.705Z,5.27
2019-01-11T00:30:41.148Z,5.50
2019-01-11T00:33:09.572Z,5.50
2019-01-11T00:35:38.050Z,5.50
2019-01-11T00:38:06.565Z,5.60
2019-01-11T00:40:34.984Z,4.93
2019-01-11T00:43:03.431Z,5.00
2019-01-11T00:45:31.845Z,5.20
2019-01-11T00:48:00.291Z,5.47
2019-01-11T00:50:28.779Z,5.10
2019-01-11T00:52:57.295Z,5.50
2019-01-11T00:55:25.708Z,4.97
2019-01-11T00:57:54.160Z,5.20
2019-01-11T01:00:24.119Z,4.90
2019-01-11T01:02:52.719Z,4.70
2019-01-11T01:05:21.450Z,4.80
2019-01-11T01:07:50.244Z,4.80
2019-01-11T01:10:20.762Z,4.83
2019-01-11T01:12:49.280Z,4.63
2019-01-11T01:15:18.108Z,5.10
2019-01-11T01:17:46.619Z,5.00
2019-01-11T01:20:16.784Z,5.07
2019-01-11T01:22:45.293Z,5.23
2019-01-11T01:25:14.053Z,5.07
2019-01-11T01:27:42.565Z,5.47
2019-01-11T01:30:18.685Z,5.00
2019-01-11T01:32:47.334Z,5.50
2019-01-11T01:35:15.826Z,5.40
2019-01-11T01:37:44.440Z,5.10
2019-01-11T01:40:15.390Z,5.10
2019-01-11T01:42:43.975Z,5.20
2019-01-11T01:45:15.109Z,5.23
2019-01-11T01:47:43.692Z,5.37
2019-01-11T01:50:12.742Z,5.50
2019-01-11T01:52:41.188Z,5.40
2019-01-11T01:55:11.943Z,5.40
2019-01-11T01:57:40.461Z,5.90
2019-01-11T02:00:17.705Z,6.07
2019-01-11T02:02:46.216Z,6.10
2019-01-11T02:05:14.911Z,6.30
2019-01-11T02:07:43.427Z,6.37
2019-01-11T02:10:13.182Z,5.60
2019-01-11T02:12:41.695Z,6.80
2019-01-11T02:15:11.356Z,6.67
2019-01-11T02:17:39.864Z,5.90
2019-01-11T02:20:14.590Z,6.20
2019-01-11T02:22:43.170Z,6.60
2019-01-11T02:25:11.761Z,6.50
2019-01-11T02:27:40.284Z,7.40
2019-01-11T02:30:17.339Z,6.37
2019-01-11T02:32:52.572Z,6.00
2019-01-11T02:35:16.206Z,7.00
2019-01-11T02:37:44.826Z,6.57
2019-01-11T02:40:13.624Z,7.00
2019-01-11T02:42:42.135Z,7.67
2019-01-11T02:45:16.382Z,6.60
2019-01-11T02:47:44.892Z,7.30
2019-01-11T02:50:14.354Z,6.77
2019-01-11T02:52:43.051Z,6.80
2019-01-11T02:55:11.829Z,7.17
2019-01-11T02:57:40.395Z,7.10
2019-01-11T03:00:12.023Z,7.20
2019-01-11T03:02:40.452Z,7.40
2019-01-11T03:05:08.977Z,6.77
2019-01-11T03:07:37.468Z,6.10
2019-01-11T03:10:09.089Z,7.33
2019-01-11T03:12:37.510Z,6.60
2019-01-11T03:15:07.893Z,5.67
2019-01-11T03:17:36.317Z,6.43
2019-01-11T03:20:07.809Z,7.17
2019-01-11T03:22:36.223Z,7.30
2019-01-11T03:25:06.620Z,6.87
2019-01-11T03:27:35.036Z,6.40
2019-01-11T03:30:05.023Z,6.47
2019-01-11T03:32:33.452Z,6.63
2019-01-11T03:35:06.462Z,6.20
2019-01-11T03:37:34.882Z,6.40
2019-01-11T03:40:05.073Z,6.37
2019-01-11T03:42:33.563Z,6.43
2019-01-11T03:45:02.074Z,6.73
2019-01-11T03:47:30.551Z,6.57
2019-01-11T03:49:58.996Z,6.67
2019-01-11T03:52:27.411Z,6.67
2019-01-11T03:54:55.857Z,7.20
2019-01-11T03:57:24.277Z,5.97
2019-01-11T03:59:52.720Z,6.77
2019-01-11T04:02:21.142Z,7.10
2019-01-11T04:04:49.584Z,6.47
2019-01-11T04:07:18.000Z,6.50
2019-01-11T04:09:46.440Z,6.73
2019-01-11T04:12:14.857Z,6.37
2019-01-11T04:14:43.298Z,6.90
2019-01-11T04:17:11.713Z,6.53
2019-01-11T04:19:40.166Z,6.60
2019-01-11T04:22:10.223Z,6.30
2019-01-11T04:24:43.323Z,7.90
2019-01-11T04:27:11.727Z,7.30
2019-01-11T04:29:40.150Z,7.30
2019-01-11T04:32:08.593Z,8.17
2019-01-11T04:34:37.017Z,7.83
2019-01-11T04:37:05.534Z,7.47
2019-01-11T04:39:33.951Z,7.40
2019-01-11T04:42:02.403Z,9.20
2019-01-11T04:44:30.823Z,8.80
2019-01-11T04:46:59.289Z,8.70
2019-01-11T04:49:27.706Z,9.57
2019-01-11T04:51:56.159Z,7.20
2019-01-11T04:54:24.579Z,9.73
2019-01-11T04:56:53.034Z,10.30
2019-01-11T04:59:21.456Z,9.33
2019-01-11T05:01:49.898Z,6.73
2019-01-11T05:04:18.326Z,11.00
2019-01-11T05:06:46.776Z,8.40
2019-01-11T05:09:15.190Z,8.83
2019-01-11T05:11:43.642Z,8.90
2019-01-11T05:14:12.060Z,9.87
2019-01-11T05:16:41.648Z,10.40
2019-01-11T05:19:10.189Z,8.93
2019-01-11T05:21:38.639Z,11.23
2019-01-11T05:24:07.055Z,9.10
2019-01-11T05:26:35.472Z,9.83
2019-01-11T05:29:03.991Z,10.70
2019-01-11T05:31:32.409Z,8.90
2019-01-11T05:34:00.858Z,10.83
2019-01-11T05:36:29.278Z,11.03
2019-01-11T05:38:57.734Z,11.93
2019-01-11T05:41:26.157Z,11.00
2019-01-11T05:43:54.614Z,10.60
2019-01-11T05:46:23.042Z,11.50
2019-01-11T05:48:51.667Z,10.50
2019-01-11T05:51:20.081Z,11.20
2019-01-11T05:53:48.534Z,11.83
2019-01-11T05:56:17.525Z,10.67
2019-01-11T05:58:47.620Z,11.53
2019-01-11T06:01:16.036Z,11.60
2019-01-11T06:03:44.486Z,13.30
2019-01-11T06:06:13.065Z,12.37
2019-01-11T06:08:41.519Z,12.93
2019-01-11T06:11:09.935Z,12.60
2019-01-11T06:13:38.383Z,12.77
2019-01-11T06:16:06.946Z,12.80
2019-01-11T06:18:35.402Z,13.50
2019-01-11T06:21:03.894Z,13.77
2019-01-11T06:23:32.393Z,14.00
2019-01-11T06:26:00.914Z,13.07
2019-01-11T06:28:29.340Z,14.57
2019-01-11T06:30:57.792Z,14.73
2019-01-11T06:33:26.288Z,13.20
2019-01-11T06:35:54.738Z,13.13
2019-01-11T06:38:23.165Z,13.80
2019-01-11T06:40:51.856Z,15.07
2019-01-11T06:43:20.286Z,14.57
2019-01-11T06:45:48.801Z,11.80
2019-01-11T06:48:18.867Z,15.07
2019-01-11T06:50:47.314Z,14.70
2019-01-11T06:53:15.739Z,18.00
2019-01-11T06:55:44.201Z,19.33
2019-01-11T06:58:12.625Z,19.90
2019-01-11T07:00:41.084Z,18.20
2019-01-11T07:03:09.507Z,23.73
2019-01-11T07:05:37.960Z,29.40
2019-01-11T07:08:06.467Z,19.80
2019-01-11T07:10:34.984Z,32.80
2019-01-11T07:13:03.418Z,20.83
2019-01-11T07:15:32.127Z,24.50
2019-01-11T07:18:00.564Z,15.87
2019-01-11T07:20:29.029Z,15.27
2019-01-11T07:22:57.444Z,14.30
2019-01-11T07:25:25.900Z,13.10
2019-01-11T07:27:55.972Z,14.70
2019-01-11T07:30:26.075Z,11.93
2019-01-11T07:32:54.516Z,14.80
2019-01-11T07:35:22.930Z,13.50
2019-01-11T07:37:51.384Z,13.60
2019-01-11T07:40:19.805Z,13.40
2019-01-11T07:42:48.256Z,14.17
2019-01-11T07:45:16.753Z,13.13
2019-01-11T07:47:45.272Z,14.90
2019-01-11T07:50:13.783Z,15.00
2019-01-11T07:52:42.301Z,14.97
2019-01-11T07:55:12.027Z,12.37
2019-01-11T07:57:40.481Z,15.50
2019-01-11T08:00:11.288Z,13.77
2019-01-11T08:02:39.884Z,12.47
2019-01-11T08:05:08.444Z,13.00
2019-01-11T08:07:36.895Z,10.67
2019-01-11T08:10:10.752Z,12.80
2019-01-11T08:12:39.209Z,11.23
2019-01-11T08:15:13.486Z,12.70
2019-01-11T08:17:41.940Z,11.17
2019-01-11T08:20:10.448Z,11.07
2019-01-11T08:22:43.307Z,11.17
2019-01-11T08:25:13.675Z,11.67
2019-01-11T08:27:42.254Z,11.30
2019-01-11T08:30:13.414Z,9.10
2019-01-11T08:32:41.861Z,11.97
2019-01-11T08:35:12.120Z,11.90
2019-01-11T08:37:40.568Z,12.10
2019-01-11T08:40:11.538Z,12.53
2019-01-11T08:42:39.979Z,11.40
2019-01-11T08:45:11.558Z,11.80
2019-01-11T08:47:40.017Z,11.70
2019-01-11T08:50:21.892Z,13.00
2019-01-11T08:52:50.631Z,11.87
2019-01-11T08:55:19.200Z,13.50
2019-01-11T08:57:47.722Z,11.73
2019-01-11T09:00:16.894Z,13.30
2019-01-11T09:02:45.415Z,13.93
2019-01-11T09:05:13.902Z,12.80
2019-01-11T09:07:42.666Z,15.73
2019-01-11T09:10:14.266Z,12.47
2019-01-11T09:12:42.724Z,13.80
2019-01-11T09:15:11.211Z,22.20
2019-01-11T09:17:47.124Z,21.47
2019-01-11T09:20:15.548Z,23.07
2019-01-11T09:22:44.000Z,18.57
2019-01-11T09:25:12.425Z,18.57
2019-01-11T09:27:40.845Z,18.33
2019-01-11T09:30:10.952Z,14.43
2019-01-11T09:32:39.367Z,15.53
2019-01-11T09:35:07.891Z,15.70
2019-01-11T09:37:36.321Z,17.13
2019-01-11T09:40:06.715Z,14.10
2019-01-11T09:42:35.210Z,14.13
2019-01-11T09:45:04.535Z,15.00
2019-01-11T09:47:32.953Z,13.17
2019-01-11T09:50:01.471Z,13.30
2019-01-11T09:52:29.965Z,13.40
2019-01-11T09:54:58.489Z,13.90
2019-01-11T09:57:27.000Z,13.60
2019-01-11T09:59:55.458Z,13.40
2019-01-11T10:02:25.551Z,13.60
2019-01-11T10:04:53.993Z,13.87
2019-01-11T10:07:25.505Z,13.77
2019-01-11T10:09:54.030Z,12.07
2019-01-11T10:12:22.522Z,12.73
2019-01-11T10:14:50.981Z,14.40
2019-01-11T10:17:19.549Z,12.37
2019-01-11T10:19:48.000Z,13.70
2019-01-11T10:22:16.497Z,13.00
2019-01-11T10:24:45.021Z,12.80
2019-01-11T10:27:13.512Z,13.90
2019-01-11T10:29:41.962Z,12.90
2019-01-11T10:32:10.391Z,11.50
2019-01-11T10:34:38.848Z,11.90
2019-01-11T10:37:07.422Z,11.87
2019-01-11T10:39:35.873Z,12.10
2019-01-11T10:42:04.668Z,11.10
2019-01-11T10:44:33.129Z,11.70
2019-01-11T10:47:01.620Z,11.10
2019-01-11T10:49:30.073Z,10.17
2019-01-11T10:51:58.496Z,11.27
2019-01-11T10:54:31.166Z,10.50
2019-01-11T10:56:59.602Z,10.47
2019-01-11T10:59:28.057Z,10.97
2019-01-11T11:01:56.493Z,10.70
2019-01-11T11:04:24.939Z,10.40
2019-01-11T11:06:53.372Z,9.93
2019-01-11T11:09:21.819Z,10.83
2019-01-11T11:11:50.242Z,9.73
2019-01-11T11:14:18.740Z,9.93
2019-01-11T11:16:47.198Z,10.07
2019-01-11T11:19:15.694Z,9.67
2019-01-11T11:21:44.149Z,11.10
2019-01-11T11:24:12.564Z,9.70
2019-01-11T11:26:41.022Z,9.20
2019-01-11T11:29:10.296Z,9.33
2019-01-11T11:31:38.829Z,8.43
2019-01-11T11:34:07.253Z,8.40
2019-01-11T11:36:35.701Z,7.40
2019-01-11T11:39:07.308Z,8.70
2019-01-11T11:41:35.762Z,6.27
2019-01-11T11:44:04.252Z,8.60
2019-01-11T11:46:32.695Z,5.17
2019-01-11T11:49:01.135Z,4.80
2019-01-11T11:51:29.576Z,3.67
2019-01-11T11:53:57.989Z,2.50
2019-01-11T11:56:26.439Z,2.57
2019-01-11T11:58:54.852Z,2.40
2019-01-11T12:01:23.357Z,2.27
2019-01-11T12:03:51.849Z,2.00
2019-01-11T12:06:20.292Z,2.20
2019-01-11T12:08:48.722Z,1.93
2019-01-11T12:11:17.164Z,2.40
2019-01-11T12:13:45.581Z,1.60
2019-01-11T12:16:14.241Z,2.10
2019-01-11T12:18:42.753Z,1.43
2019-01-11T12:21:11.302Z,1.20
2019-01-11T12:23:39.752Z,1.17
2019-01-11T12:26:08.434Z,1.60
2019-01-11T12:28:36.876Z,1.30
2019-01-11T12:31:05.372Z,1.43
2019-01-11T12:33:33.810Z,1.17
2019-01-11T12:36:02.302Z,0.83
2019-01-11T12:38:30.749Z,1.00
2019-01-11T12:40:59.164Z,1.00
2019-01-11T12:43:27.610Z,1.00
2019-01-11T12:45:56.029Z,0.80
2019-01-11T12:48:24.472Z,2.60
2019-01-11T12:50:52.893Z,0.80
2019-01-11T12:53:21.332Z,3.43
2019-01-11T12:55:49.926Z,1.70
2019-01-11T12:58:18.383Z,0.70
2019-01-11T13:00:46.801Z,0.67
2019-01-11T13:03:15.329Z,0.77
2019-01-11T13:05:43.748Z,0.80
2019-01-11T13:08:12.191Z,1.20
2019-01-11T13:10:40.608Z,0.70
2019-01-11T13:13:09.051Z,1.17
2019-01-11T13:15:37.471Z,0.93
2019-01-11T13:18:06.000Z,0.80
2019-01-11T13:20:34.492Z,1.07
2019-01-11T13:23:02.910Z,0.80
2019-01-11T13:25:32.262Z,0.60
2019-01-11T13:28:00.974Z,1.00
2019-01-11T13:30:29.425Z,1.10
2019-01-11T13:32:57.832Z,1.00
2019-01-11T13:35:26.274Z,1.20
2019-01-11T13:37:54.700Z,1.30
2019-01-11T13:40:23.714Z,1.00
2019-01-11T13:42:52.612Z,1.30
2019-01-11T13:45:22.510Z,0.90
2019-01-11T13:47:51.020Z,4.87
2019-01-11T13:50:34.054Z,1.67
2019-01-11T13:53:02.543Z,2.40
2019-01-11T13:55:30.992Z,0.87
2019-01-11T13:57:59.476Z,1.10
2019-01-11T14:00:27.991Z,1.10
2019-01-11T14:02:56.481Z,1.30
2019-01-11T14:05:25.000Z,1.33
2019-01-11T14:07:53.456Z,1.50
2019-01-11T14:10:21.900Z,1.03
2019-01-11T14:12:50.312Z,1.20
2019-01-11T14:15:19.769Z,0.80
2019-01-11T14:17:48.243Z,1.57
2019-01-11T14:20:16.687Z,1.30
2019-01-11T14:22:45.176Z,1.40
2019-01-11T14:25:13.688Z,1.43
2019-01-11T14:27:42.116Z,3.50
2019-01-11T14:30:18.862Z,4.20
2019-01-11T14:32:47.410Z,1.90
2019-01-11T14:35:15.928Z,1.60
2019-01-11T14:37:44.487Z,7.30
2019-01-11T14:40:16.986Z,2.50
2019-01-11T14:42:45.463Z,4.27
2019-01-11T14:45:16.029Z,1.53
2019-01-11T14:47:44.474Z,1.80
2019-01-11T14:50:15.135Z,0.83
2019-01-11T14:52:43.646Z,1.27
2019-01-11T14:55:12.250Z,0.80
2019-01-11T14:57:40.719Z,1.17
2019-01-11T15:00:20.657Z,2.17
2019-01-11T15:02:49.165Z,1.77
2019-01-11T15:05:18.514Z,3.00
2019-01-11T15:07:47.037Z,0.97
2019-01-11T15:10:16.810Z,1.63
2019-01-11T15:12:46.756Z,1.23
2019-01-11T15:15:15.174Z,1.30
2019-01-11T15:17:43.698Z,1.00
2019-01-11T15:20:14.752Z,1.20
2019-01-11T15:22:43.329Z,1.30
2019-01-11T15:25:11.995Z,1.77
2019-01-11T15:27:41.800Z,1.13
2019-01-11T15:30:13.550Z,1.60
2019-01-11T15:32:42.067Z,1.47
2019-01-11T15:35:10.551Z,1.40
2019-01-11T15:37:39.068Z,1.73
2019-01-11T15:40:19.493Z,1.17
2019-01-11T15:42:47.941Z,2.10
2019-01-11T15:45:16.362Z,1.73
2019-01-11T15:47:44.801Z,1.70
2019-01-11T15:50:32.719Z,2.53
2019-01-11T15:53:01.417Z,2.00
2019-01-11T15:55:29.881Z,1.50
2019-01-11T15:57:58.323Z,1.27
2019-01-11T16:00:26.739Z,1.93
2019-01-11T16:02:55.246Z,1.60
2019-01-11T16:05:23.667Z,2.53
2019-01-11T16:07:52.134Z,2.57
2019-01-11T16:10:21.280Z,2.60
2019-01-11T16:12:50.382Z,3.67
2019-01-11T16:15:30.983Z,2.03
2019-01-11T16:18:05.167Z,1.97
2019-01-11T16:20:33.657Z,2.13
2019-01-11T16:23:02.264Z,3.90
2019-01-11T16:25:30.751Z,4.50
2019-01-11T16:27:59.541Z,3.00
2019-01-11T16:30:27.996Z,6.50
2019-01-11T16:32:56.419Z,3.57
2019-01-11T16:35:24.878Z,3.20
2019-01-11T16:37:53.298Z,2.40
2019-01-11T16:40:21.816Z,1.70
2019-01-11T16:42:50.252Z,2.50
2019-01-11T16:45:18.852Z,2.87
2019-01-11T16:47:47.278Z,2.67
2019-01-11T16:50:19.252Z,2.90
2019-01-11T16:52:47.698Z,3.33
2019-01-11T16:55:16.202Z,3.67
2019-01-11T16:57:44.647Z,2.87
2019-01-11T17:00:18.612Z,4.07
2019-01-11T17:02:47.020Z,3.63
2019-01-11T17:05:15.894Z,3.03
2019-01-11T17:07:44.389Z,3.10
2019-01-11T17:10:13.419Z,3.37
2019-01-11T17:12:42.184Z,3.13
2019-01-11T17:15:13.577Z,3.50
2019-01-11T17:17:42.000Z,4.93
2019-01-11T17:20:13.555Z,4.73
2019-01-11T17:22:42.046Z,3.60
2019-01-11T17:25:10.553Z,2.63
2019-01-11T17:27:38.981Z,4.30
2019-01-11T17:30:10.631Z,4.60
2019-01-11T17:32:39.147Z,4.27
2019-01-11T17:35:07.840Z,3.30
2019-01-11T17:37:36.296Z,3.03
2019-01-11T17:40:07.270Z,3.40
2019-01-11T17:42:35.709Z,2.20
2019-01-11T17:45:05.886Z,2.80
2019-01-11T17:47:34.332Z,3.30
2019-01-11T17:50:02.758Z,2.33
2019-01-11T17:52:31.204Z,2.80
2019-01-11T17:54:59.627Z,2.60
2019-01-11T17:57:28.226Z,3.40
2019-01-11T17:59:56.648Z,2.50
2019-01-11T18:02:35.534Z,5.43
2019-01-11T18:04:55.252Z,2.30
2019-01-11T18:07:23.725Z,2.80
2019-01-11T18:09:54.177Z,2.10
2019-01-11T18:12:22.634Z,4.07
2019-01-11T18:14:51.057Z,3.03
2019-01-11T18:17:19.603Z,5.67
2019-01-11T18:19:48.008Z,4.50
2019-01-11T18:22:16.463Z,4.50
2019-01-11T18:24:44.879Z,2.53
2019-01-11T18:27:13.344Z,3.70
2019-01-11T18:29:41.839Z,3.30
2019-01-11T18:32:10.365Z,2.93
2019-01-11T18:34:38.791Z,3.60
2019-01-11T18:37:07.303Z,1.67
2019-01-11T18:39:35.725Z,2.87
2019-01-11T18:42:04.247Z,4.43
2019-01-11T18:44:32.663Z,3.03
2019-01-11T18:47:01.078Z,2.90
2019-01-11T18:49:29.527Z,3.67
2019-01-11T18:51:57.953Z,3.20
2019-01-11T18:54:26.415Z,2.87
2019-01-11T18:56:54.849Z,4.80
2019-01-11T18:59:23.366Z,4.50
2019-01-11T19:01:51.795Z,5.17
2019-01-11T19:04:20.239Z,4.10
2019-01-11T19:06:48.729Z,4.87
2019-01-11T19:09:17.183Z,3.93
2019-01-11T19:11:45.604Z,3.57
2019-01-11T19:14:14.067Z,5.00
2019-01-11T19:16:42.488Z,3.90
2019-01-11T19:19:11.005Z,2.77
2019-01-11T19:21:39.496Z,2.97
2019-01-11T19:24:07.940Z,4.83
2019-01-11T19:26:36.369Z,4.90
2019-01-11T19:29:05.131Z,5.00
2019-01-11T19:31:33.553Z,5.27
2019-01-11T19:34:02.013Z,5.23
2019-01-11T19:36:30.502Z,3.63
2019-01-11T19:38:59.020Z,2.97
2019-01-11T19:41:27.507Z,3.53
2019-01-11T19:43:55.961Z,4.57
2019-01-11T19:46:24.401Z,3.70
2019-01-11T19:48:52.859Z,3.77
2019-01-11T19:51:21.265Z,4.43
2019-01-11T19:53:49.729Z,5.30
2019-01-11T19:56:18.139Z,4.47
2019-01-11T19:58:46.662Z,3.90
2019-01-11T20:01:15.189Z,3.60
2019-01-11T20:03:43.643Z,4.40
2019-01-11T20:06:12.105Z,3.60
2019-01-11T20:08:40.509Z,4.77
2019-01-11T20:11:08.963Z,4.77
2019-01-11T20:13:37.381Z,5.90
2019-01-11T20:16:05.928Z,6.00
2019-01-11T20:18:34.332Z,6.00
2019-01-11T20:21:02.783Z,5.63
2019-01-11T20:23:35.679Z,5.37
2019-01-11T20:26:01.512Z,6.40
2019-01-11T20:28:30.004Z,8.17
2019-01-11T20:30:58.451Z,5.57
2019-01-11T20:33:26.887Z,5.23
2019-01-11T20:35:55.393Z,7.47
2019-01-11T20:38:23.883Z,8.43
2019-01-11T20:40:52.401Z,7.97
2019-01-11T20:43:20.821Z,7.30
2019-01-11T20:45:49.348Z,8.00
2019-01-11T20:48:17.832Z,9.10
2019-01-11T20:50:46.281Z,6.30
2019-01-11T20:53:14.711Z,5.90
2019-01-11T20:55:43.207Z,7.30
2019-01-11T20:58:11.652Z,5.37
2019-01-11T21:00:40.221Z,8.37
2019-01-11T21:03:08.739Z,6.20
2019-01-11T21:05:37.810Z,5.20
2019-01-11T21:08:06.324Z,6.77
2019-01-11T21:10:34.821Z,6.30
2019-01-11T21:13:03.337Z,3.80
2019-01-11T21:15:31.821Z,6.40
2019-01-11T21:18:00.265Z,5.97
2019-01-11T21:20:28.835Z,5.70
2019-01-11T21:22:57.347Z,6.30
2019-01-11T21:25:25.846Z,4.30
2019-01-11T21:27:54.473Z,5.60
2019-01-11T21:30:28.025Z,5.60
2019-01-11T21:32:56.546Z,6.03
2019-01-11T21:35:25.443Z,5.13
2019-01-11T21:37:53.877Z,5.90
2019-01-11T21:40:22.632Z,5.83
2019-01-11T21:42:51.163Z,5.80
2019-01-11T21:45:19.717Z,7.03
2019-01-11T21:47:48.408Z,6.30
2019-01-11T21:50:19.541Z,4.30
2019-01-11T21:52:48.061Z,6.70
2019-01-11T21:55:16.917Z,4.60
2019-01-11T21:57:45.716Z,5.73
2019-01-11T22:00:32.029Z,3.93
2019-01-11T22:03:00.530Z,5.90
2019-01-11T22:05:28.954Z,5.00
2019-01-11T22:07:57.375Z,5.17
2019-01-11T22:10:25.820Z,4.30
2019-01-11T22:12:54.238Z,6.33
2019-01-11T22:15:22.763Z,3.87
2019-01-11T22:17:51.175Z,5.20
2019-01-11T22:20:19.961Z,3.50
2019-01-11T22:22:48.457Z,5.03
2019-01-11T22:25:18.255Z,5.70
2019-01-11T22:27:46.742Z,5.00
2019-01-11T22:30:20.550Z,4.87
2019-01-11T22:32:49.116Z,4.30
2019-01-11T22:35:18.543Z,3.80
2019-01-11T22:37:47.136Z,5.30
2019-01-11T22:40:17.715Z,4.40
2019-01-11T22:42:46.472Z,5.73
2019-01-11T22:45:15.703Z,4.83
2019-01-11T22:47:44.490Z,4.00
2019-01-11T22:50:15.182Z,5.80
2019-01-11T22:52:43.604Z,6.43
2019-01-11T22:55:14.315Z,3.53
2019-01-11T22:57:42.802Z,6.10
2019-01-11T23:00:38.074Z,5.50
2019-01-11T23:03:18.439Z,4.90
2019-01-11T23:05:48.019Z,4.57
2019-01-11T23:08:18.381Z,4.17
2019-01-11T23:10:55.745Z,3.40
2019-01-11T23:13:24.149Z,5.40
2019-01-11T23:15:52.776Z,3.60
2019-01-11T23:18:21.266Z,5.10
2019-01-11T23:20:49.727Z,5.10
2019-01-11T23:23:18.153Z,4.57
2019-01-11T23:25:46.576Z,3.43
2019-01-11T23:28:15.026Z,4.20
2019-01-11T23:30:43.452Z,4.93
2019-01-11T23:33:11.969Z,4.03
2019-01-11T23:35:40.387Z,5.63
2019-01-11T23:38:08.900Z,5.40
2019-01-11T23:40:37.318Z,5.40
2019-01-11T23:43:05.839Z,4.80
2019-01-11T23:45:34.336Z,4.40
2019-01-11T23:48:02.786Z,4.60
2019-01-11T23:50:31.211Z,5.27
2019-01-11T23:52:59.659Z,5.70
2019-01-11T23:55:28.154Z,6.10
2019-01-11T23:57:56.599Z,4.07
